createdAt,value
2023-04-23T00:03:24.331Z,65.11
2023-04-23T00:08:29.328Z,65.04
2023-04-23T00:13:33.556Z,65.69
2023-04-23T00:18:36.925Z,65.88
2023-04-23T00:23:40.779Z,65.92
2023-04-23T00:28:43.863Z,66.07
2023-04-23T00:33:46.876Z,66.61
2023-04-23T00:38:50.173Z,66.43
2023-04-23T00:43:53.483Z,66.63
2023-04-23T00:48:57.459Z,66.99
2023-04-23T00:54:00.822Z,67.32
2023-04-23T00:59:04.160Z,67.75
2023-04-23T01:04:09.760Z,67.74
2023-04-23T01:09:13.641Z,67.82
2023-04-23T01:14:17.386Z,68.04
2023-04-23T01:19:20.961Z,68.34
2023-04-23T01:24:24.724Z,68.25
2023-04-23T01:29:29.070Z,68.86
2023-04-23T01:34:33.013Z,69.32
2023-04-23T01:39:37.294Z,69.81
2023-04-23T01:44:41.379Z,69.57
2023-04-23T01:49:44.926Z,69.61
2023-04-23T01:54:48.435Z,69.71
2023-04-23T01:59:51.484Z,69.88
2023-04-23T02:04:55.780Z,70.29
2023-04-23T02:09:59.302Z,70.55
2023-04-23T02:15:02.395Z,71.14
2023-04-23T02:20:09.892Z,71.33
2023-04-23T02:25:18.167Z,71.93
2023-04-23T02:30:23.013Z,71.75
2023-04-23T02:35:26.306Z,72.37
2023-04-23T02:40:29.503Z,72.67
2023-04-23T02:45:32.653Z,72.81
2023-04-23T02:50:35.729Z,73.45
2023-04-23T02:55:38.830Z,73.99
2023-04-23T03:00:42.185Z,74.37
2023-04-23T03:05:45.758Z,74.25
2023-04-23T03:10:49.059Z,73.61
2023-04-23T03:15:54.269Z,73.33
2023-04-23T03:20:57.815Z,73.32
2023-04-23T03:26:01.138Z,73.60
2023-04-23T03:31:04.405Z,73.38
2023-04-23T03:36:07.869Z,74.14
2023-04-23T03:41:11.316Z,74.21
2023-04-23T03:46:14.470Z,74.82
2023-04-23T03:51:17.500Z,75.30
2023-04-23T03:56:21.654Z,74.79
2023-04-23T04:01:24.732Z,74.21
2023-04-23T04:06:27.945Z,74.19
2023-04-23T04:11:31.668Z,74.35
2023-04-23T04:16:34.918Z,74.21
2023-04-23T04:21:38.226Z,74.44
2023-04-23T04:26:42.263Z,74.78
2023-04-23T04:31:45.347Z,74.73
2023-04-23T04:36:48.421Z,74.40
2023-04-23T04:41:51.430Z,73.91
2023-04-23T04:46:54.646Z,73.43
2023-04-23T04:51:57.840Z,72.60
2023-04-23T04:57:02.593Z,71.75
2023-04-23T05:02:05.878Z,70.44
2023-04-23T05:07:09.113Z,69.28
2023-04-23T05:12:12.473Z,68.92
2023-04-23T05:17:15.937Z,67.43
2023-04-23T05:22:19.050Z,66.92
2023-04-23T05:27:22.252Z,66.46
2023-04-23T05:32:26.420Z,66.43
2023-04-23T05:37:31.213Z,65.76
2023-04-23T05:42:37.326Z,65.57
2023-04-23T05:47:40.739Z,64.88
2023-04-23T05:52:43.917Z,64.46
2023-04-23T05:57:47.157Z,63.94
2023-04-23T06:02:50.868Z,63.78
2023-04-23T06:07:54.693Z,63.14
2023-04-23T06:12:57.889Z,62.54
2023-04-23T06:18:01.133Z,62.44
2023-04-23T06:23:04.329Z,62.18
2023-04-23T06:28:07.495Z,61.60
2023-04-23T06:33:11.115Z,60.10
2023-04-23T06:38:14.325Z,58.73
2023-04-23T06:43:17.433Z,57.67
2023-04-23T06:48:22.417Z,56.67
2023-04-23T06:53:25.706Z,55.47
2023-04-23T06:58:32.356Z,54.53
2023-04-23T07:03:36.738Z,53.37
2023-04-23T07:08:40.493Z,52.24
2023-04-23T07:13:43.671Z,51.70
2023-04-23T07:18:46.770Z,50.76
2023-04-23T07:23:49.987Z,50.20
2023-04-23T07:28:53.810Z,49.75
2023-04-23T07:33:57.217Z,48.79
2023-04-23T07:39:00.441Z,48.13
2023-04-23T07:44:04.559Z,46.67
2023-04-23T07:49:08.282Z,44.72
2023-04-23T07:54:11.825Z,43.89
2023-04-23T07:59:14.907Z,42.75
2023-04-23T08:04:18.274Z,41.63
2023-04-23T08:09:21.544Z,41.95
2023-04-23T08:14:24.671Z,41.17
2023-04-23T08:19:31.847Z,40.76
2023-04-23T08:24:35.040Z,40.29
2023-04-23T08:29:38.250Z,40.10
2023-04-23T08:34:41.465Z,39.90
2023-04-23T08:39:44.656Z,39.38
2023-04-23T08:44:49.201Z,38.74
2023-04-23T08:49:55.958Z,38.22
2023-04-23T08:55:01.867Z,37.11
2023-04-23T09:00:06.643Z,37.29
2023-04-23T09:05:10.958Z,36.81
2023-04-23T09:10:17.017Z,35.90
2023-04-23T09:15:22.503Z,35.38
2023-04-23T09:20:25.699Z,35.17
2023-04-23T09:25:29.011Z,35.47
2023-04-23T09:30:32.215Z,35.10
2023-04-23T09:35:36.863Z,35.13
2023-04-23T09:40:40.782Z,34.32
2023-04-23T09:45:50.794Z,33.14
2023-04-23T09:50:56.059Z,33.37
2023-04-23T09:55:59.215Z,33.53
2023-04-23T10:01:09.712Z,32.88
2023-04-23T10:06:25.900Z,31.48
2023-04-23T10:11:41.824Z,31.43
2023-04-23T10:16:49.324Z,30.34
2023-04-23T10:22:12.197Z,30.20
2023-04-23T10:27:33.447Z,31.14
2023-04-23T10:32:49.228Z,30.78
2023-04-23T10:37:53.409Z,30.28
2023-04-23T10:42:57.292Z,30.29
2023-04-23T10:48:00.509Z,29.80
2023-04-23T10:53:04.540Z,30.04
2023-04-23T10:58:08.595Z,30.05
2023-04-23T11:03:32.917Z,29.50
2023-04-23T11:08:36.678Z,29.57
2023-04-23T11:13:54.303Z,28.98
2023-04-23T11:19:12.773Z,28.75
2023-04-23T11:24:16.103Z,28.73
2023-04-23T11:29:26.346Z,28.50
2023-04-23T11:34:29.814Z,27.99
2023-04-23T11:39:33.108Z,28.00
2023-04-23T11:44:39.753Z,28.33
2023-04-23T11:49:45.031Z,27.83
2023-04-23T11:54:48.675Z,27.39
2023-04-23T11:59:54.131Z,27.55
2023-04-23T12:04:57.201Z,27.57
2023-04-23T12:10:00.959Z,28.28
2023-04-23T12:15:08.533Z,27.49
2023-04-23T12:20:19.559Z,27.24
2023-04-23T12:25:24.247Z,27.72
2023-04-23T12:30:32.787Z,26.56
2023-04-23T12:35:50.583Z,26.78
2023-04-23T12:40:56.745Z,27.45
2023-04-23T12:45:59.966Z,26.94
2023-04-23T12:51:04.925Z,26.71
2023-04-23T12:56:07.966Z,26.41
2023-04-23T13:01:12.946Z,26.37
2023-04-23T13:06:16.513Z,25.81
2023-04-23T13:11:19.611Z,25.73
2023-04-23T13:16:22.861Z,26.02
2023-04-23T13:21:26.733Z,26.18
2023-04-23T13:26:32.312Z,26.10
2023-04-23T13:31:35.854Z,25.69
2023-04-23T13:36:41.600Z,25.57
2023-04-23T13:41:47.836Z,25.19
2023-04-23T13:46:54.858Z,24.92
2023-04-23T13:52:01.358Z,24.94
2023-04-23T13:57:04.705Z,25.13
2023-04-23T14:02:07.946Z,24.77
2023-04-23T14:07:11.591Z,25.04
2023-04-23T14:12:14.811Z,25.06
2023-04-23T14:17:18.002Z,25.92
2023-04-23T14:22:21.109Z,26.62
2023-04-23T14:27:24.314Z,26.50
2023-04-23T14:32:27.588Z,25.77
2023-04-23T14:37:30.869Z,25.63
2023-04-23T14:42:34.044Z,26.47
2023-04-23T14:47:37.326Z,26.59
2023-04-23T14:52:40.578Z,26.34
2023-04-23T14:57:44.198Z,26.79
2023-04-23T15:09:55.633Z,26.13
2023-04-23T15:14:58.841Z,26.89
2023-04-23T15:20:02.205Z,26.79
2023-04-23T15:25:06.905Z,27.09
2023-04-23T15:30:10.987Z,26.90
2023-04-23T15:35:14.139Z,26.85
2023-04-23T15:40:18.182Z,26.77
2023-04-23T15:45:21.378Z,27.09
2023-04-23T15:50:26.947Z,27.42
2023-04-23T15:55:30.887Z,27.17
2023-04-23T16:00:34.485Z,27.48
2023-04-23T16:05:37.692Z,27.66
2023-04-23T16:10:42.856Z,27.69
2023-04-23T16:15:46.269Z,27.75
2023-04-23T16:20:49.570Z,27.93
2023-04-23T16:25:53.198Z,28.22
2023-04-23T16:30:56.922Z,28.14
2023-04-23T16:36:00.126Z,28.68
2023-04-23T16:41:03.648Z,28.92
2023-04-23T16:46:06.909Z,29.22
2023-04-23T16:51:10.797Z,29.64
2023-04-23T16:56:13.989Z,30.40
2023-04-23T17:01:18.246Z,31.16
2023-04-23T17:06:30.813Z,31.62
2023-04-23T17:11:33.942Z,32.29
2023-04-23T17:16:37.113Z,32.65
2023-04-23T17:21:40.681Z,33.12
2023-04-23T17:26:43.993Z,33.58
2023-04-23T17:31:47.243Z,33.98
2023-04-23T17:36:51.118Z,34.46
2023-04-23T17:41:56.370Z,34.81
2023-04-23T17:46:59.782Z,35.05
2023-04-23T17:52:03.721Z,35.32
2023-04-23T17:57:10.022Z,35.52
2023-04-23T18:02:13.303Z,35.84
2023-04-23T18:07:16.740Z,36.32
2023-04-23T18:12:20.030Z,36.61
2023-04-23T18:17:25.309Z,36.99
2023-04-23T18:22:28.617Z,37.60
2023-04-23T18:27:34.011Z,38.07
2023-04-23T18:32:47.229Z,38.63
2023-04-23T18:37:59.510Z,39.14
2023-04-23T18:43:03.051Z,40.17
2023-04-23T18:48:35.364Z,40.51
2023-04-23T18:53:39.280Z,40.91
2023-04-23T18:58:42.585Z,41.68
2023-04-23T19:03:45.967Z,42.28
2023-04-23T19:08:49.415Z,43.13
2023-04-23T19:13:53.117Z,43.80
2023-04-23T19:18:56.525Z,44.57
2023-04-23T19:23:59.944Z,45.07
2023-04-23T19:29:03.859Z,45.58
2023-04-23T19:34:06.981Z,45.72
2023-04-23T19:39:10.906Z,46.65
2023-04-23T19:44:14.119Z,46.75
2023-04-23T19:49:17.411Z,47.38
2023-04-23T19:54:21.777Z,47.76
2023-04-23T19:59:27.631Z,49.06
2023-04-23T20:04:31.152Z,49.33
2023-04-23T20:09:35.891Z,49.97
2023-04-23T20:14:39.092Z,50.08
2023-04-23T20:19:45.066Z,50.67
2023-04-23T20:24:49.307Z,50.69
2023-04-23T20:29:52.706Z,51.47
2023-04-23T20:34:56.532Z,51.82
2023-04-23T20:40:00.464Z,51.90
2023-04-23T20:45:04.420Z,52.46
2023-04-23T20:50:08.638Z,52.69
2023-04-23T20:55:11.942Z,51.99
2023-04-23T21:00:16.156Z,52.90
2023-04-23T21:05:19.695Z,53.68
2023-04-23T21:10:23.091Z,54.28
2023-04-23T21:15:26.508Z,53.40
2023-04-23T21:20:30.681Z,53.74
2023-04-23T21:25:34.908Z,53.74
2023-04-23T21:30:53.098Z,53.65
2023-04-23T21:35:56.337Z,53.63
2023-04-23T21:41:01.535Z,53.60
2023-04-23T21:46:04.900Z,53.69
2023-04-23T21:51:08.107Z,53.83
2023-04-23T21:56:11.526Z,53.85
2023-04-23T22:01:14.658Z,53.58
2023-04-23T22:06:18.546Z,54.22
2023-04-23T22:11:21.974Z,53.88
2023-04-23T22:16:28.581Z,54.76
2023-04-23T22:21:33.126Z,55.22
2023-04-23T22:26:36.824Z,55.97
2023-04-23T22:31:40.254Z,56.37
2023-04-23T22:36:43.572Z,56.47
2023-04-23T22:41:46.962Z,56.80
2023-04-23T22:46:50.582Z,57.22
2023-04-23T22:51:53.992Z,57.12
2023-04-23T22:56:57.195Z,56.73
2023-04-23T23:02:00.446Z,57.44
2023-04-23T23:07:05.056Z,57.62
2023-04-23T23:12:08.572Z,57.85
2023-04-23T23:17:11.777Z,58.28
2023-04-23T23:22:15.114Z,58.10
2023-04-23T23:27:18.298Z,57.37
2023-04-23T23:32:21.444Z,58.24
2023-04-23T23:37:24.857Z,58.41
2023-04-23T23:42:28.042Z,59.01
2023-04-23T23:47:31.608Z,59.13
2023-04-23T23:52:35.053Z,59.40
2023-04-23T23:57:38.272Z,59.88
